createdAt,value
2023-05-07T00:02:16.684Z,15.40
2023-05-07T00:04:43.674Z,15.40
2023-05-07T00:07:10.553Z,15.40
2023-05-07T00:09:37.657Z,15.30
2023-05-07T00:12:04.710Z,15.40
2023-05-07T00:14:31.843Z,15.40
2023-05-07T00:16:59.284Z,15.30
2023-05-07T00:19:26.254Z,15.20
2023-05-07T00:21:55.289Z,15.20
2023-05-07T00:24:22.255Z,15.30
2023-05-07T00:26:49.291Z,15.40
2023-05-07T00:29:16.529Z,15.50
2023-05-07T00:31:43.417Z,15.40
2023-05-07T00:34:10.657Z,15.40
2023-05-07T00:36:37.728Z,15.40
2023-05-07T00:39:04.792Z,15.30
2023-05-07T00:41:32.476Z,15.30
2023-05-07T00:43:59.672Z,15.30
2023-05-07T00:46:27.161Z,15.30
2023-05-07T00:48:55.231Z,15.30
2023-05-07T00:51:24.626Z,15.10
2023-05-07T00:53:52.233Z,15.10
2023-05-07T00:56:19.232Z,15.00
2023-05-07T00:58:46.134Z,15.00
2023-05-07T01:01:13.110Z,14.90
2023-05-07T01:03:40.223Z,15.00
2023-05-07T01:06:08.696Z,14.90
2023-05-07T01:08:37.363Z,14.90
2023-05-07T01:11:04.766Z,14.90
2023-05-07T01:13:32.198Z,14.90
2023-05-07T01:15:59.256Z,14.90
2023-05-07T01:18:26.794Z,14.90
2023-05-07T01:20:53.752Z,14.90
2023-05-07T01:23:21.199Z,15.00
2023-05-07T01:25:54.809Z,15.00
2023-05-07T01:28:21.869Z,14.90
2023-05-07T01:30:53.081Z,14.90
2023-05-07T01:33:25.240Z,14.90
2023-05-07T01:35:54.103Z,14.80
2023-05-07T01:38:22.908Z,14.80
2023-05-07T01:40:50.007Z,14.80
2023-05-07T01:43:17.399Z,14.80
2023-05-07T01:45:45.566Z,14.80
2023-05-07T01:48:14.014Z,14.90
2023-05-07T01:50:41.580Z,14.90
2023-05-07T01:53:08.562Z,14.90
2023-05-07T01:55:38.088Z,14.80
2023-05-07T01:58:05.386Z,14.80
2023-05-07T02:00:33.068Z,14.70
2023-05-07T02:03:00.298Z,14.70
2023-05-07T02:05:27.355Z,14.70
2023-05-07T02:07:54.256Z,14.70
2023-05-07T02:10:21.110Z,14.80
2023-05-07T02:12:48.083Z,14.80
2023-05-07T02:15:15.146Z,14.80
2023-05-07T02:18:03.486Z,14.80
2023-05-07T02:20:30.537Z,14.70
2023-05-07T02:22:57.433Z,14.70
2023-05-07T02:25:24.424Z,14.80
2023-05-07T02:27:51.376Z,14.80
2023-05-07T02:30:18.333Z,14.80
2023-05-07T02:32:46.022Z,14.80
2023-05-07T02:35:13.030Z,14.70
2023-05-07T02:37:40.087Z,14.70
2023-05-07T02:40:07.639Z,14.80
2023-05-07T02:42:34.735Z,14.70
2023-05-07T02:45:01.895Z,14.60
2023-05-07T02:47:29.678Z,14.70
2023-05-07T02:49:56.719Z,14.70
2023-05-07T02:52:23.733Z,14.80
2023-05-07T02:54:50.604Z,14.70
2023-05-07T02:57:17.747Z,14.70
2023-05-07T02:59:44.831Z,14.80
2023-05-07T03:02:11.762Z,14.70
2023-05-07T03:04:39.986Z,14.80
2023-05-07T03:07:06.959Z,14.70
2023-05-07T03:09:34.134Z,14.60
2023-05-07T03:12:01.100Z,14.60
2023-05-07T03:14:28.595Z,14.50
2023-05-07T03:16:55.583Z,14.50
2023-05-07T03:19:22.845Z,14.60
2023-05-07T03:21:49.665Z,14.60
2023-05-07T03:24:16.890Z,14.60
2023-05-07T03:26:43.734Z,14.50
2023-05-07T03:29:10.549Z,14.60
2023-05-07T03:31:37.549Z,14.60
2023-05-07T03:34:05.184Z,14.50
2023-05-07T03:36:32.635Z,14.60
2023-05-07T03:38:59.483Z,14.60
2023-05-07T03:41:27.051Z,14.60
2023-05-07T03:43:54.353Z,14.50
2023-05-07T03:46:21.600Z,14.60
2023-05-07T03:48:48.766Z,14.60
2023-05-07T03:51:15.667Z,14.60
2023-05-07T03:53:42.690Z,14.50
2023-05-07T03:56:09.581Z,14.60
2023-05-07T03:58:36.537Z,14.50
2023-05-07T04:01:03.861Z,14.40
2023-05-07T04:03:30.944Z,14.40
2023-05-07T04:05:57.963Z,14.40
2023-05-07T04:08:24.931Z,14.40
2023-05-07T04:10:59.197Z,14.40
2023-05-07T04:13:26.691Z,14.40
2023-05-07T04:15:54.804Z,14.40
2023-05-07T04:18:22.453Z,14.40
2023-05-07T04:20:52.567Z,14.30
2023-05-07T04:23:19.409Z,14.40
2023-05-07T04:25:46.588Z,14.40
2023-05-07T04:28:13.651Z,14.50
2023-05-07T04:30:40.686Z,14.50
2023-05-07T04:33:07.999Z,14.40
2023-05-07T04:35:35.063Z,14.40
2023-05-07T04:38:02.890Z,14.40
2023-05-07T04:40:29.792Z,14.40
2023-05-07T04:42:57.007Z,14.40
2023-05-07T04:45:24.176Z,14.40
2023-05-07T04:47:51.081Z,14.40
2023-05-07T04:50:20.518Z,14.50
2023-05-07T04:52:47.493Z,14.60
2023-05-07T04:55:14.386Z,14.60
2023-05-07T04:57:42.619Z,14.60
2023-05-07T05:00:10.178Z,14.60
2023-05-07T05:02:37.295Z,14.60
2023-05-07T05:05:04.424Z,14.50
2023-05-07T05:07:31.343Z,14.50
2023-05-07T05:09:58.747Z,14.50
2023-05-07T05:12:26.040Z,14.60
2023-05-07T05:14:53.141Z,14.60
2023-05-07T05:17:20.101Z,14.60
2023-05-07T05:19:47.143Z,14.60
2023-05-07T05:22:14.070Z,14.70
2023-05-07T05:24:40.919Z,14.60
2023-05-07T05:27:07.764Z,14.70
2023-05-07T05:29:34.720Z,14.90
2023-05-07T05:32:01.870Z,14.90
2023-05-07T05:34:28.971Z,14.90
2023-05-07T05:36:56.540Z,14.90
2023-05-07T05:39:24.275Z,15.00
2023-05-07T05:41:51.128Z,15.00
2023-05-07T05:44:18.024Z,15.10
2023-05-07T05:46:45.130Z,15.10
2023-05-07T05:49:12.116Z,15.20
2023-05-07T05:51:38.975Z,15.20
2023-05-07T05:54:05.952Z,15.20
2023-05-07T05:56:32.927Z,15.20
2023-05-07T05:58:59.924Z,15.30
2023-05-07T06:01:26.893Z,15.40
2023-05-07T06:03:54.039Z,15.40
2023-05-07T06:06:20.978Z,15.50
2023-05-07T06:08:47.996Z,15.50
2023-05-07T06:11:14.979Z,15.60
2023-05-07T06:13:41.832Z,15.70
2023-05-07T06:16:09.207Z,15.80
2023-05-07T06:18:37.102Z,15.90
2023-05-07T06:21:04.454Z,16.00
2023-05-07T06:23:31.289Z,16.00
2023-05-07T06:25:58.135Z,16.10
2023-05-07T06:28:25.136Z,16.20
2023-05-07T06:30:52.076Z,16.30
2023-05-07T06:33:20.692Z,16.30
2023-05-07T06:35:47.841Z,16.50
2023-05-07T06:38:14.689Z,16.60
2023-05-07T06:40:41.505Z,16.60
2023-05-07T06:43:08.387Z,16.70
2023-05-07T06:45:35.530Z,16.60
2023-05-07T06:48:02.500Z,16.80
2023-05-07T06:50:29.333Z,16.80
2023-05-07T06:52:56.162Z,16.80
2023-05-07T06:55:23.045Z,16.80
2023-05-07T06:57:49.948Z,16.90
2023-05-07T07:00:17.313Z,16.90
2023-05-07T07:02:44.598Z,17.00
2023-05-07T07:05:11.731Z,17.10
2023-05-07T07:07:38.716Z,17.10
2023-05-07T07:10:06.346Z,17.30
2023-05-07T07:12:33.395Z,17.60
2023-05-07T07:15:00.596Z,17.70
2023-05-07T07:17:27.523Z,17.70
2023-05-07T07:19:54.400Z,17.80
2023-05-07T07:22:21.258Z,18.00
2023-05-07T07:24:48.338Z,18.00
2023-05-07T07:27:15.221Z,18.10
2023-05-07T07:29:42.117Z,18.10
2023-05-07T07:32:09.641Z,18.30
2023-05-07T07:34:36.717Z,18.30
2023-05-07T07:37:06.393Z,18.50
2023-05-07T07:39:38.654Z,18.50
2023-05-07T07:42:06.153Z,18.60
2023-05-07T07:44:33.071Z,18.70
2023-05-07T07:47:00.193Z,18.70
2023-05-07T07:49:27.681Z,18.80
2023-05-07T07:51:54.824Z,18.90
2023-05-07T07:54:21.809Z,19.00
2023-05-07T07:56:48.771Z,19.10
2023-05-07T07:59:18.675Z,19.30
2023-05-07T08:01:46.160Z,19.30
2023-05-07T08:04:13.296Z,19.50
2023-05-07T08:06:40.398Z,19.60
2023-05-07T08:09:07.219Z,19.80
2023-05-07T08:11:34.147Z,19.90
2023-05-07T08:14:01.679Z,20.10
2023-05-07T08:16:31.010Z,20.10
2023-05-07T08:18:58.060Z,20.00
2023-05-07T08:21:25.039Z,20.10
2023-05-07T08:23:51.903Z,20.30
2023-05-07T08:26:18.718Z,20.30
2023-05-07T08:28:46.224Z,20.50
2023-05-07T08:31:13.092Z,20.70
2023-05-07T08:33:40.119Z,20.90
2023-05-07T08:36:07.135Z,21.10
2023-05-07T08:38:34.079Z,21.10
2023-05-07T08:41:01.027Z,21.10
2023-05-07T08:43:29.035Z,21.00
2023-05-07T08:45:58.131Z,21.00
2023-05-07T08:48:28.748Z,20.90
2023-05-07T08:50:56.483Z,20.80
2023-05-07T08:53:23.335Z,21.00
2023-05-07T08:55:50.389Z,21.10
2023-05-07T08:58:17.343Z,21.10
2023-05-07T09:00:44.827Z,21.20
2023-05-07T09:03:13.727Z,21.20
2023-05-07T09:05:41.288Z,21.10
2023-05-07T09:08:09.250Z,21.20
2023-05-07T09:10:36.508Z,21.10
2023-05-07T09:13:05.222Z,21.10
2023-05-07T09:15:32.614Z,21.10
2023-05-07T09:18:02.718Z,21.10
2023-05-07T09:20:32.237Z,21.10
2023-05-07T09:22:59.413Z,21.30
2023-05-07T09:25:33.654Z,21.50
2023-05-07T09:28:01.843Z,21.70
2023-05-07T09:30:32.932Z,21.90
2023-05-07T09:33:01.401Z,22.10
2023-05-07T09:35:28.672Z,22.20
2023-05-07T09:37:57.894Z,22.40
2023-05-07T09:40:27.500Z,22.60
2023-05-07T09:42:55.109Z,22.80
2023-05-07T09:45:29.720Z,22.80
2023-05-07T09:47:58.327Z,22.80
2023-05-07T09:50:29.451Z,22.90
2023-05-07T09:52:57.836Z,23.00
2023-05-07T09:55:25.078Z,23.20
2023-05-07T09:57:53.691Z,23.30
2023-05-07T10:00:22.517Z,23.40
2023-05-07T10:02:53.700Z,23.50
2023-05-07T10:05:24.053Z,23.50
2023-05-07T10:07:54.501Z,23.70
2023-05-07T10:10:22.049Z,23.70
2023-05-07T10:12:49.497Z,23.40
2023-05-07T10:15:16.550Z,23.30
2023-05-07T10:17:43.524Z,23.30
2023-05-07T10:20:10.782Z,23.50
2023-05-07T10:22:44.978Z,23.70
2023-05-07T10:25:29.632Z,23.80
2023-05-07T10:28:00.976Z,23.90
2023-05-07T10:30:49.192Z,24.20
2023-05-07T10:33:21.560Z,24.40
2023-05-07T10:35:49.340Z,24.20
2023-05-07T10:38:16.672Z,24.20
2023-05-07T10:40:47.723Z,24.30
2023-05-07T10:43:15.588Z,24.40
2023-05-07T10:45:42.834Z,24.50
2023-05-07T10:48:29.745Z,24.50
2023-05-07T10:51:20.616Z,24.70
2023-05-07T10:53:47.463Z,24.60
2023-05-07T10:56:20.213Z,24.40
2023-05-07T10:58:47.137Z,24.30
2023-05-07T11:01:15.995Z,24.20
2023-05-07T11:04:17.045Z,24.10
2023-05-07T11:07:10.057Z,24.30
2023-05-07T11:10:02.717Z,24.40
2023-05-07T11:12:39.542Z,24.60
2023-05-07T11:15:14.501Z,24.70
2023-05-07T11:17:55.947Z,24.90
2023-05-07T11:20:54.893Z,25.10
2023-05-07T11:23:38.300Z,25.10
2023-05-07T11:26:10.044Z,25.10
2023-05-07T11:28:41.543Z,25.10
2023-05-07T11:31:09.225Z,25.20
2023-05-07T11:33:37.164Z,25.30
2023-05-07T11:36:05.987Z,25.30
2023-05-07T11:38:37.484Z,25.30
2023-05-07T11:41:08.131Z,25.10
2023-05-07T11:43:36.792Z,25.10
2023-05-07T11:46:11.628Z,25.10
2023-05-07T11:48:40.007Z,25.20
2023-05-07T11:51:13.211Z,25.10
2023-05-07T11:53:41.701Z,25.30
2023-05-07T11:56:14.030Z,25.50
2023-05-07T11:58:42.132Z,25.10
2023-05-07T12:01:10.653Z,25.30
2023-05-07T12:03:38.820Z,25.40
2023-05-07T12:06:09.810Z,25.20
2023-05-07T12:08:41.851Z,25.00
2023-05-07T12:11:12.391Z,24.90
2023-05-07T12:13:39.485Z,24.90
2023-05-07T12:16:08.152Z,24.90
2023-05-07T12:18:36.492Z,25.00
2023-05-07T12:21:05.140Z,25.30
2023-05-07T12:23:32.676Z,25.40
2023-05-07T12:26:00.941Z,25.80
2023-05-07T12:28:27.828Z,25.80
2023-05-07T12:30:55.127Z,26.00
2023-05-07T12:33:27.035Z,26.00
2023-05-07T12:35:56.313Z,26.00
2023-05-07T12:38:23.661Z,26.10
2023-05-07T12:40:54.699Z,26.20
2023-05-07T12:43:26.538Z,25.90
2023-05-07T12:45:56.356Z,25.80
2023-05-07T12:48:24.551Z,25.60
2023-05-07T12:50:52.491Z,25.40
2023-05-07T12:53:22.515Z,25.10
2023-05-07T12:55:53.609Z,24.90
2023-05-07T12:58:24.458Z,24.80
2023-05-07T13:00:52.254Z,24.60
2023-05-07T13:03:25.117Z,24.60
2023-05-07T13:05:53.371Z,24.60
2023-05-07T13:08:30.521Z,24.50
2023-05-07T13:10:59.256Z,24.50
2023-05-07T13:13:26.409Z,24.50
2023-05-07T13:15:53.316Z,24.60
2023-05-07T13:18:20.411Z,24.50
2023-05-07T13:20:47.264Z,24.30
2023-05-07T13:23:14.183Z,24.10
2023-05-07T13:25:41.174Z,24.00
2023-05-07T13:28:11.257Z,23.90
2023-05-07T13:30:38.576Z,24.00
2023-05-07T13:33:05.488Z,24.00
2023-05-07T13:35:32.367Z,23.90
2023-05-07T13:37:59.393Z,23.80
2023-05-07T13:40:26.577Z,23.80
2023-05-07T13:42:54.205Z,23.80
2023-05-07T13:45:21.196Z,23.70
2023-05-07T13:47:50.045Z,23.60
2023-05-07T13:50:17.142Z,23.50
2023-05-07T13:52:52.023Z,23.50
2023-05-07T13:55:20.142Z,23.60
2023-05-07T13:57:47.715Z,23.60
2023-05-07T14:00:15.489Z,23.60
2023-05-07T14:02:43.180Z,23.70
2023-05-07T14:05:10.929Z,23.60
2023-05-07T14:07:38.274Z,23.30
2023-05-07T14:10:05.814Z,23.20
2023-05-07T14:12:33.940Z,23.30
2023-05-07T14:15:00.900Z,23.40
2023-05-07T14:17:28.344Z,23.40
2023-05-07T14:19:56.361Z,23.30
2023-05-07T14:22:23.942Z,23.20
2023-05-07T14:25:03.225Z,23.40
2023-05-07T14:27:33.302Z,23.20
2023-05-07T14:30:00.353Z,23.00
2023-05-07T14:32:27.278Z,23.00
2023-05-07T14:34:54.520Z,23.00
2023-05-07T14:37:21.523Z,23.10
2023-05-07T14:39:51.024Z,22.90
2023-05-07T14:42:18.693Z,22.80
2023-05-07T14:44:46.564Z,22.60
2023-05-07T14:47:14.182Z,22.70
2023-05-07T14:49:42.312Z,22.70
2023-05-07T14:52:11.223Z,22.70
2023-05-07T14:54:39.520Z,22.70
2023-05-07T14:57:07.884Z,22.70
2023-05-07T14:59:35.144Z,22.80
2023-05-07T15:02:05.278Z,22.90
2023-05-07T15:04:33.986Z,22.70
2023-05-07T15:07:01.596Z,22.70
2023-05-07T15:09:28.534Z,22.70
2023-05-07T15:11:55.482Z,22.70
2023-05-07T15:14:23.159Z,22.60
2023-05-07T15:16:51.031Z,22.60
2023-05-07T15:19:18.161Z,22.50
2023-05-07T15:21:45.359Z,22.50
2023-05-07T15:24:12.209Z,22.50
2023-05-07T15:26:39.089Z,22.50
2023-05-07T15:29:11.054Z,22.60
2023-05-07T15:31:41.230Z,22.60
2023-05-07T15:34:08.228Z,22.50
2023-05-07T15:36:35.072Z,22.60
2023-05-07T15:39:03.991Z,22.60
2023-05-07T15:41:31.198Z,22.60
2023-05-07T15:43:58.275Z,22.50
2023-05-07T15:46:26.961Z,22.40
2023-05-07T15:48:54.563Z,22.50
2023-05-07T15:51:22.787Z,22.50
2023-05-07T15:53:50.300Z,22.30
2023-05-07T15:56:17.412Z,22.20
2023-05-07T15:58:44.229Z,22.10
2023-05-07T16:01:11.686Z,22.00
2023-05-07T16:03:40.361Z,21.90
2023-05-07T16:06:07.606Z,21.80
2023-05-07T16:08:34.634Z,21.60
2023-05-07T16:11:01.477Z,21.50
2023-05-07T16:13:28.713Z,21.50
2023-05-07T16:15:59.782Z,21.30
2023-05-07T16:18:26.770Z,21.20
2023-05-07T16:20:54.538Z,21.10
2023-05-07T16:23:21.692Z,21.00
2023-05-07T16:25:49.710Z,21.00
2023-05-07T16:28:17.317Z,21.10
2023-05-07T16:30:44.704Z,21.10
2023-05-07T16:33:11.587Z,21.10
2023-05-07T16:35:38.569Z,21.00
2023-05-07T16:38:10.112Z,20.90
2023-05-07T16:40:41.006Z,20.80
2023-05-07T16:43:08.062Z,20.70
2023-05-07T16:45:35.246Z,20.70
2023-05-07T16:48:03.457Z,20.80
2023-05-07T16:50:30.510Z,20.80
2023-05-07T16:52:57.571Z,20.80
2023-05-07T16:55:24.758Z,20.70
2023-05-07T16:57:51.773Z,20.40
2023-05-07T17:00:19.372Z,20.20
2023-05-07T17:02:47.181Z,20.00
2023-05-07T17:05:14.607Z,19.90
2023-05-07T17:07:41.930Z,19.90
2023-05-07T17:10:09.184Z,19.70
2023-05-07T17:12:38.091Z,19.50
2023-05-07T17:15:05.642Z,19.40
2023-05-07T17:17:32.916Z,19.30
2023-05-07T17:20:00.216Z,19.20
2023-05-07T17:22:27.656Z,19.20
2023-05-07T17:24:54.587Z,19.20
2023-05-07T17:27:21.525Z,19.10
2023-05-07T17:29:48.367Z,19.10
2023-05-07T17:32:15.488Z,19.00
2023-05-07T17:34:42.667Z,18.90
2023-05-07T17:37:09.817Z,19.00
2023-05-07T17:39:36.691Z,19.00
2023-05-07T17:42:03.958Z,18.90
2023-05-07T17:44:31.000Z,19.00
2023-05-07T17:46:58.363Z,18.90
2023-05-07T17:49:25.519Z,18.90
2023-05-07T17:51:55.325Z,18.80
2023-05-07T17:54:24.288Z,18.80
2023-05-07T17:56:51.605Z,18.60
2023-05-07T17:59:18.924Z,18.60
2023-05-07T18:01:45.839Z,18.40
2023-05-07T18:04:12.767Z,18.30
2023-05-07T18:06:41.711Z,18.20
2023-05-07T18:09:08.759Z,18.10
2023-05-07T18:11:37.536Z,18.00
2023-05-07T18:14:04.485Z,18.00
2023-05-07T18:16:31.782Z,17.90
2023-05-07T18:18:58.668Z,17.90
2023-05-07T18:21:25.706Z,17.80
2023-05-07T18:23:52.665Z,17.70
2023-05-07T18:26:19.615Z,17.70
2023-05-07T18:28:46.687Z,17.80
2023-05-07T18:31:13.674Z,17.70
2023-05-07T18:33:40.933Z,17.80
2023-05-07T18:36:08.271Z,17.70
2023-05-07T18:38:35.465Z,17.70
2023-05-07T18:41:05.289Z,17.70
2023-05-07T18:43:34.322Z,17.70
2023-05-07T18:46:01.601Z,17.60
2023-05-07T18:48:28.594Z,17.50
2023-05-07T18:50:55.619Z,17.40
2023-05-07T18:53:22.795Z,17.30
2023-05-07T18:55:50.972Z,17.30
2023-05-07T18:58:19.881Z,17.30
2023-05-07T19:00:47.993Z,17.30
2023-05-07T19:03:15.913Z,17.30
2023-05-07T19:05:44.043Z,17.30
2023-05-07T19:08:11.460Z,17.30
2023-05-07T19:10:38.385Z,17.20
2023-05-07T19:13:05.852Z,17.20
2023-05-07T19:15:32.862Z,17.10
2023-05-07T19:17:59.798Z,17.00
2023-05-07T19:20:26.898Z,17.00
2023-05-07T19:22:53.827Z,17.00
2023-05-07T19:25:20.707Z,17.00
2023-05-07T19:27:48.163Z,17.00
2023-05-07T19:30:15.246Z,16.90
2023-05-07T19:32:42.267Z,16.90
2023-05-07T19:35:09.766Z,16.90
2023-05-07T19:37:36.844Z,16.90
2023-05-07T19:40:06.188Z,16.90
2023-05-07T19:42:33.022Z,16.90
2023-05-07T19:45:00.275Z,16.90
2023-05-07T19:47:27.593Z,16.90
2023-05-07T19:49:54.894Z,16.80
2023-05-07T19:52:21.849Z,16.90
2023-05-07T19:54:48.697Z,16.80
2023-05-07T19:57:17.552Z,16.80
2023-05-07T19:59:46.314Z,16.80
2023-05-07T20:02:13.177Z,16.80
2023-05-07T20:04:40.097Z,16.70
2023-05-07T20:07:07.680Z,16.70
2023-05-07T20:09:34.619Z,16.70
2023-05-07T20:12:01.550Z,16.60
2023-05-07T20:14:28.618Z,16.60
2023-05-07T20:16:55.816Z,16.50
2023-05-07T20:19:22.671Z,16.50
2023-05-07T20:21:50.067Z,16.40
2023-05-07T20:24:19.187Z,16.30
2023-05-07T20:26:46.911Z,16.30
2023-05-07T20:29:13.867Z,16.30
2023-05-07T20:31:40.695Z,16.30
2023-05-07T20:34:08.121Z,16.30
2023-05-07T20:36:35.963Z,16.20
2023-05-07T20:39:04.300Z,16.20
2023-05-07T20:41:31.219Z,16.20
2023-05-07T20:43:58.527Z,16.20
2023-05-07T20:46:27.407Z,16.20
2023-05-07T20:48:55.006Z,16.30
2023-05-07T20:51:21.863Z,16.20
2023-05-07T20:53:48.698Z,16.30
2023-05-07T20:56:16.046Z,16.20
2023-05-07T20:58:43.367Z,16.30
2023-05-07T21:01:10.470Z,16.30
2023-05-07T21:03:37.358Z,16.30
2023-05-07T21:06:04.489Z,16.30
2023-05-07T21:08:31.815Z,16.30
2023-05-07T21:10:59.632Z,16.30
2023-05-07T21:13:26.695Z,16.30
2023-05-07T21:15:53.699Z,16.30
2023-05-07T21:18:20.669Z,16.40
2023-05-07T21:20:48.019Z,16.50
2023-05-07T21:23:14.993Z,16.50
2023-05-07T21:25:42.943Z,16.50
2023-05-07T21:28:09.817Z,16.50
2023-05-07T21:30:37.319Z,16.50
2023-05-07T21:33:06.216Z,16.40
2023-05-07T21:35:38.755Z,16.40
2023-05-07T21:38:06.104Z,16.30
2023-05-07T21:40:33.215Z,16.30
2023-05-07T21:43:01.090Z,16.30
2023-05-07T21:45:28.077Z,16.20
2023-05-07T21:47:55.447Z,16.20
2023-05-07T21:50:22.721Z,16.30
2023-05-07T21:52:50.085Z,16.30
2023-05-07T21:55:20.080Z,16.20
2023-05-07T21:58:01.465Z,16.10
2023-05-07T22:00:32.917Z,16.00
2023-05-07T22:03:00.506Z,16.00
2023-05-07T22:05:28.051Z,15.90
2023-05-07T22:07:54.942Z,15.90
2023-05-07T22:10:22.706Z,15.90
2023-05-07T22:12:50.118Z,15.90
2023-05-07T22:15:17.452Z,15.90
2023-05-07T22:17:44.383Z,15.90
2023-05-07T22:20:12.114Z,15.90
2023-05-07T22:22:53.556Z,15.80
2023-05-07T22:25:24.539Z,15.90
2023-05-07T22:27:51.839Z,15.80
2023-05-07T22:30:19.125Z,15.70
2023-05-07T22:32:46.160Z,15.70
2023-05-07T22:35:13.135Z,15.70
2023-05-07T22:37:40.143Z,15.70
2023-05-07T22:40:07.557Z,15.60
2023-05-07T22:42:34.464Z,15.60
2023-05-07T22:45:01.388Z,15.50
2023-05-07T22:47:31.602Z,15.50
2023-05-07T22:49:58.963Z,15.50
2023-05-07T22:52:25.911Z,15.50
2023-05-07T22:54:52.998Z,15.60
2023-05-07T22:57:20.093Z,15.50
2023-05-07T22:59:47.314Z,15.50
2023-05-07T23:02:14.240Z,15.60
2023-05-07T23:04:41.166Z,15.60
2023-05-07T23:07:07.991Z,15.60
2023-05-07T23:09:35.403Z,15.50
2023-05-07T23:12:03.221Z,15.60
2023-05-07T23:14:30.127Z,15.50
2023-05-07T23:16:57.513Z,15.50
2023-05-07T23:19:24.396Z,15.50
2023-05-07T23:21:51.749Z,15.50
2023-05-07T23:24:18.802Z,15.50
2023-05-07T23:26:45.602Z,15.50
2023-05-07T23:29:12.446Z,15.50
2023-05-07T23:31:39.520Z,15.50
2023-05-07T23:34:06.482Z,15.50
2023-05-07T23:36:33.971Z,15.40
2023-05-07T23:39:00.802Z,15.40
2023-05-07T23:41:27.738Z,15.40
2023-05-07T23:43:54.629Z,15.40
2023-05-07T23:46:21.657Z,15.30
2023-05-07T23:48:48.616Z,15.30
2023-05-07T23:51:15.418Z,15.20
2023-05-07T23:53:42.272Z,15.20
2023-05-07T23:56:09.096Z,15.20
2023-05-07T23:58:36.080Z,15.20
